Aurora, Illinois
Current Conditions -  °F | °C
As of 9:52 PM on Friday 24 Oct 2014 (Local Time) from KARR Reporting Station
Overcast Overcast  
Wind Chill: 60°   Ceiling: 3500
Heat Index: 60°   Visibility: 9mi
Dew Point: 47°   Wind: 8mph
Humidity: 62%   Direction: 220°SW
Pressure: 29.95"   Gusts: NA
Location:  41.76°N, 88.31°W
Report Text: KARR 250252Z AUTO 22007KT 9SM OVC035 16/08 A2995 RMK AO2 SLP142 T01560083 55000
Loading
Personal Weather Stations






























Interactive Weather Map
Tropical Storm Tracking
New forecast layout! Learn more

10-Day Weather Forecast

Advertisements
Track Severe Weather on mobile